Latest Weather Observations for Bankstown

IDN60901

Issued at 1:45 am EST Saturday 2 August 2014 (issued every 10 minutes, with the page automatically refreshed every 10 minutes)

About weather observations | Map of Sydney area stations | Latest observations for Sydney area | Other Formats
Station Details ID: 066137 Name: BANKSTOWN AIRPORT AWS Lat: -33.92 Lon: 150.99 Height: 6.5 m
Data from the previous 72 hours. | See also: Recent months at Bankstown
Date/Time
EST
Tmp

°C
App
Tmp
°C
Dew
Point
°C
Rel
Hum
%
Delta-T

°C
Wind Press
QNH
hPa
Press
MSL
hPa
Rain
since
9 am
mm
Dir
 
Spd
km/h
Gust
km/h
Spd
kts
Gust
kts
02/01:30am 8.1 2.3 -1.4 51 3.6 W 19 26 10 14 1017.8 - 0.0
02/01:00am 8.1 3.2 -0.4 55 3.3 WSW 15 22 8 12 1017.7 1017.7 0.0
02/12:30am 7.2 2.8 0.2 61 2.7 WSW 13 17 7 9 1017.7 - 0.0
02/12:00am 4.7 1.4 0.3 73 1.7 W 7 11 4 6 1017.2 1017.2 0.0
 
Date/Time
EST
Tmp

°C
App
Tmp
°C
Dew
Point
°C
Rel
Hum
%
Delta-T

°C
Wind Press
QNH
hPa
Press
MSL
hPa
Rain
since
9 am
mm
Dir
 
Spd
km/h
Gust
km/h
Spd
kts
Gust
kts
01/11:30pm 5.8 2.1 0.0 66 2.2 SW 9 17 5 9 1017.3 - 0.0
01/11:00pm 6.4 2.3 -0.3 62 2.6 N 11 15 6 8 1016.1 1016.1 0.0
01/10:30pm 8.1 4.1 0.8 60 2.9 N 11 15 6 8 1016.4 - 0.0
01/10:00pm 8.1 3.4 0.8 60 2.9 WNW 15 20 8 11 1016.2 1016.2 0.0
01/09:30pm 8.1 3.0 1.0 61 2.9 NW 17 20 9 11 1015.8 - 0.0
01/09:00pm 7.7 3.5 1.5 65 2.5 NNW 13 19 7 10 1016.0 1016.0 0.0
01/08:30pm 8.2 3.6 1.6 63 2.7 NW 15 20 8 11 1015.7 - 0.0
01/08:00pm 8.6 3.3 1.7 62 2.8 WNW 19 24 10 13 1015.3 1015.3 0.0
01/07:42pm 9.2 1.3 1.1 57 3.3 WNW 32 37 17 20 1015.4 - 0.0
01/07:30pm 9.8 0.9 0.7 53 3.7 W 37 50 20 27 1015.4 - 0.0
01/07:16pm 10.8 2.7 -0.3 46 4.5 W 32 63 17 34 1015.3 - 0.0
01/07:00pm 10.7 4.4 -1.0 44 4.6 W 22 35 12 19 1014.7 1014.7 0.0
01/06:30pm 11.3 4.5 -2.1 39 5.2 W 24 37 13 20 1014.0 - 0.0
01/06:00pm 12.9 4.3 -3.8 31 6.3 W 32 61 17 33 1012.9 1012.9 0.0
01/05:59pm 13.1 4.9 -3.6 31 6.4 W 30 56 16 30 1012.9 - 0.0
01/05:30pm 13.4 6.7 -4.2 29 6.7 W 22 33 12 18 1011.7 - 0.0
01/05:09pm 13.9 6.0 -4.8 27 7.0 WNW 28 46 15 25 1011.0 - 0.0
01/05:00pm 13.9 6.8 -4.8 27 7.0 WNW 24 43 13 23 1010.7 1010.7 0.0
01/04:30pm 15.0 7.4 -5.4 24 7.7 W 26 35 14 19 1010.2 - 0.0
01/04:04pm 15.4 6.7 -5.6 23 7.9 W 32 50 17 27 1009.8 - 0.0
01/04:00pm 15.5 6.1 -6.1 22 8.0 W 35 50 19 27 1009.7 1009.7 0.0
01/03:30pm 15.7 7.6 -6.5 21 8.2 WSW 28 43 15 23 1009.4 - 0.0
01/03:00pm 16.0 7.4 -7.6 19 8.6 W 30 44 16 24 1009.3 1009.3 0.0
01/02:30pm 15.6 6.4 -7.9 19 8.4 W 33 52 18 28 1009.0 - 0.0
01/02:03pm 16.3 7.4 -6.7 20 8.5 W 32 50 17 27 1008.7 - 0.0
01/02:00pm 16.7 7.9 -6.3 20 8.6 W 32 44 17 24 1008.6 1008.6 0.0
01/01:37pm 16.8 8.4 -5.6 21 8.5 W 30 50 16 27 1008.4 - 0.0
01/01:30pm 16.9 9.0 -4.3 23 8.3 W 28 39 15 21 1008.2 - 0.0
01/01:00pm 14.8 6.3 -3.0 29 7.0 SW 32 48 17 26 1008.3 1008.3 0.0
01/12:52pm 15.3 7.6 -2.6 29 7.2 WSW 28 48 15 26 1008.3 - 0.0
01/12:30pm 15.5 7.9 -2.4 29 7.2 SW 28 39 15 21 1008.2 - 0.0
01/12:00pm 16.3 7.7 -2.2 28 7.6 WSW 33 46 18 25 1008.2 1008.2 0.0
01/11:30am 16.2 9.1 -0.9 31 7.2 SW 26 43 14 23 1008.2 - 0.0
01/11:00am 18.2 9.9 -0.6 28 8.1 W 33 57 18 31 1007.6 1007.6 0.0
01/10:53am 18.3 10.0 -0.5 28 8.1 WNW 33 57 18 31 1007.6 - 0.0
01/10:30am 18.0 10.0 0.2 30 7.8 WNW 32 44 17 24 1007.4 - 0.0
01/10:00am 17.8 11.5 1.7 34 7.2 WNW 24 32 13 17 1007.6 1007.6 0.0
01/09:30am 17.3 11.1 2.1 36 6.8 WNW 24 33 13 18 1007.4 - 0.0
01/09:00am 17.0 11.2 2.2 37 6.7 WNW 22 32 12 17 1007.4 1007.4 0.0
01/08:30am 16.5 11.3 0.2 33 7.0 W 17 22 9 12 1007.3 - 0.0
01/08:00am 16.1 12.1 0.3 34 6.8 W 11 15 6 8 1007.0 1007.0 0.0
01/07:30am 15.4 10.1 -0.4 34 6.6 W 17 26 9 14 1006.8 - 0.0
01/07:00am 16.1 10.0 -2.4 28 7.5 WNW 20 32 11 17 1006.1 1006.1 0.0
01/06:30am 16.9 10.4 -2.7 26 8.0 WNW 22 30 12 16 1005.4 - 0.0
01/06:00am 16.5 10.6 -2.5 27 7.7 NW 19 26 10 14 1004.7 1004.7 0.0
01/05:30am 15.2 10.8 -2.2 30 7.0 NW 11 19 6 10 1004.3 - 0.0
01/05:00am 15.7 10.7 -4.2 25 7.8 W 13 20 7 11 1004.4 1004.4 0.0
01/04:30am 16.3 11.0 -3.7 25 7.9 NNW 15 20 8 11 1003.5 - 0.0
01/04:00am 15.7 11.5 -3.7 26 7.6 NNW 9 15 5 8 1003.5 1003.5 0.0
01/03:30am 16.5 11.5 -4.1 24 8.1 N 13 19 7 10 1003.8 - 0.0
01/03:00am 16.0 11.5 -3.5 26 7.7 N 11 17 6 9 1004.0 1004.0 0.0
01/02:30am 16.7 11.4 -3.4 25 8.0 N 15 20 8 11 1004.4 - 0.0
01/02:00am 17.2 11.5 -3.5 24 8.3 N 17 22 9 12 1004.7 1004.7 0.0
01/01:30am 17.0 11.0 -3.1 25 8.1 N 19 24 10 13 1005.0 - 0.0
01/01:00am 17.6 11.7 -2.6 25 8.3 N 19 28 10 15 1005.2 1005.2 0.0
01/12:30am 17.8 12.2 -3.0 24 8.5 N 17 24 9 13 1005.4 - 0.0
01/12:00am 18.1 12.1 -2.8 24 8.6 N 19 26 10 14 1005.7 1005.7 0.0
 
Date/Time
EST
Tmp

°C
App
Tmp
°C
Dew
Point
°C
Rel
Hum
%
Delta-T

°C
Wind Press
QNH
hPa
Press
MSL
hPa
Rain
since
9 am
mm
Dir
 
Spd
km/h
Gust
km/h
Spd
kts
Gust
kts
31/11:30pm 17.5 11.9 -2.7 25 8.2 NNW 17 24 9 13 1006.0 - 0.0
31/11:00pm 18.4 11.5 -2.5 24 8.7 NNW 24 35 13 19 1005.9 1005.9 0.0
31/10:30pm 18.6 12.4 -2.9 23 8.8 NNW 20 30 11 16 1006.0 - 0.0
31/10:00pm 18.9 12.8 -2.1 24 8.8 N 20 33 11 18 1006.1 1006.1 0.0
31/09:30pm 19.0 12.9 -2.0 24 8.8 N 20 26 11 14 1006.4 - 0.0
31/09:00pm 18.7 13.3 -1.7 25 8.6 NNW 17 24 9 13 1006.5 1006.5 0.0
31/08:30pm 18.6 13.5 -1.8 25 8.6 NNW 15 24 8 13 1006.9 - 0.0
31/08:00pm 19.4 13.5 -2.2 23 9.1 NNW 19 32 10 17 1006.6 1006.6 0.0
31/07:30pm 20.0 14.5 -2.3 22 9.4 NNW 17 24 9 13 1006.8 - 0.0
31/07:00pm 20.4 14.3 -2.0 22 9.6 NNW 20 28 11 15 1006.6 1006.6 0.0
31/06:30pm 20.7 14.8 -2.4 21 9.8 NNW 19 28 10 15 1006.5 - 0.0
31/06:00pm 21.4 15.3 -2.5 20 10.2 NNW 20 28 11 15 1006.2 1006.2 0.0
31/05:30pm 21.4 15.4 -1.8 21 10.0 NNW 20 32 11 17 1006.3 - 0.0
31/05:00pm 22.6 16.6 -1.5 20 10.6 NNW 20 32 11 17 1006.4 1006.4 0.0
31/04:30pm 23.5 16.8 -1.4 19 11.0 NW 24 37 13 20 1006.5 - 0.0
31/04:00pm 24.4 17.1 -3.0 16 11.9 NW 26 35 14 19 1006.5 1006.5 0.0
31/03:46pm 24.7 16.5 -3.6 15 12.1 NW 30 48 16 26 1006.6 - 0.0
31/03:30pm 24.9 16.3 -4.4 14 12.4 NW 32 44 17 24 1006.6 - 0.0
31/03:02pm 25.3 17.7 -2.3 16 12.2 NW 28 46 15 25 1006.8 - 0.0
31/03:00pm 25.3 17.0 -1.5 17 12.0 NW 32 48 17 26 1006.8 1006.8 0.0
31/02:30pm 25.2 16.9 -1.6 17 12.0 WNW 32 50 17 27 1007.1 - 0.0
31/02:16pm 25.5 17.3 -1.3 17 12.1 NW 32 50 17 27 1007.3 - 0.0
31/02:00pm 25.1 16.1 -2.5 16 12.2 WNW 35 50 19 27 1007.5 1007.5 0.0
31/01:50pm 25.4 17.0 -2.2 16 12.2 WNW 32 50 17 27 1007.7 - 0.0
31/01:30pm 25.0 16.0 -2.5 16 12.1 NW 35 50 19 27 1008.0 - 0.0
31/01:00pm 25.2 17.2 -2.4 16 12.2 NW 30 48 16 26 1008.5 1008.5 0.0
31/12:49pm 25.0 17.5 -1.7 17 11.9 NW 28 46 15 25 1008.7 - 0.0
31/12:30pm 25.0 17.5 -1.7 17 11.9 NW 28 39 15 21 1009.3 - 0.0
31/12:09pm 24.4 17.0 -0.7 19 11.3 NNW 28 46 15 25 1009.9 - 0.0
31/12:00pm 23.9 17.5 0.9 22 10.7 NNW 24 30 13 16 1010.3 1010.3 0.0
31/11:30am 23.1 17.2 2.0 25 9.9 NNW 22 32 12 17 1011.4 - 0.0
31/11:00am 22.2 16.1 2.8 28 9.2 N 24 33 13 18 1012.1 1012.1 0.0
31/10:30am 21.1 15.5 3.3 31 8.5 N 22 32 12 17 1012.8 - 0.0
31/10:00am 19.9 14.3 3.2 33 7.9 N 22 32 12 17 1013.2 1013.2 0.0
31/09:30am 19.6 14.0 3.3 34 7.7 N 22 32 12 17 1013.7 - 0.0
31/09:00am 18.4 13.3 3.1 36 7.1 N 19 28 10 15 1013.9 1013.9 0.0
31/08:30am 17.0 12.6 4.7 44 5.8 NNW 17 24 9 13 1014.0 - 0.0
31/08:00am 15.4 12.1 4.5 48 5.1 NNW 11 17 6 9 1014.2 1014.2 0.0
31/07:30am 13.5 10.0 5.4 58 3.8 NNW 13 19 7 10 1014.4 - 0.0
31/07:00am 12.0 9.2 5.2 63 3.1 N 9 13 5 7 1014.4 1014.4 0.0
31/06:30am 11.9 8.3 5.1 63 3.1 NNW 13 19 7 10 1014.4 - 0.0
31/06:00am 11.1 8.2 4.8 65 2.9 NNW 9 13 5 7 1014.3 1014.3 0.0
31/05:30am 12.2 8.7 5.4 63 3.2 NW 13 17 7 9 1014.1 - 0.0
31/05:00am 12.7 8.9 5.6 62 3.3 NW 15 19 8 10 1014.2 1014.2 0.0
31/04:30am 12.9 9.7 5.3 60 3.5 NW 11 15 6 8 1014.2 - 0.0
31/04:00am 13.7 9.1 5.6 58 3.8 NW 19 22 10 12 1014.4 1014.4 0.0
31/03:30am 14.1 9.5 5.7 57 4.0 NW 19 26 10 14 1014.5 - 0.0
31/03:00am 14.4 9.9 6.3 58 3.9 NNW 19 24 10 13 1014.6 1014.6 0.0
31/02:30am 13.6 9.9 6.2 61 3.5 NNW 15 19 8 10 1014.8 - 0.0
31/02:00am 14.4 10.7 6.5 59 3.8 N 15 20 8 11 1015.2 1015.2 0.0
31/01:30am 14.4 10.3 6.3 58 3.9 NNW 17 22 9 12 1015.4 - 0.0
31/01:00am 14.8 10.7 6.1 56 4.2 N 17 22 9 12 1015.7 1015.7 0.0
31/12:30am 15.3 11.0 6.8 57 4.2 NNW 19 28 10 15 1016.0 - 0.0
31/12:00am 15.0 11.3 6.3 56 4.2 N 15 19 8 10 1016.3 1016.3 0.0
 
Date/Time
EST
Tmp

°C
App
Tmp
°C
Dew
Point
°C
Rel
Hum
%
Delta-T

°C
Wind Press
QNH
hPa
Press
MSL
hPa
Rain
since
9 am
mm
Dir
 
Spd
km/h
Gust
km/h
Spd
kts
Gust
kts
30/11:30pm 15.4 11.4 6.7 56 4.2 N 17 24 9 13 1016.6 - 0.0
30/11:00pm 14.3 10.9 5.9 57 4.0 NNW 13 17 7 9 1016.9 1016.9 0.0
30/10:30pm 14.8 11.8 6.1 56 4.2 N 11 15 6 8 1017.1 - 0.0
30/10:00pm 14.7 11.7 5.8 55 4.2 N 11 13 6 7 1017.2 1017.2 0.0
30/09:30pm 15.1 12.7 5.3 52 4.6 N 7 11 4 6 1017.3 - 0.0
30/09:00pm 15.9 12.9 5.8 51 4.8 N 11 15 6 8 1017.3 1017.3 0.0
30/08:30pm 16.0 12.9 5.6 50 5.0 NNW 11 13 6 7 1017.3 - 0.0
30/08:00pm 16.5 13.4 5.5 48 5.3 N 11 13 6 7 1017.4 1017.4 0.0
30/07:30pm 16.4 13.3 5.7 49 5.2 NNW 11 13 6 7 1017.4 - 0.0
30/07:00pm 16.5 12.9 5.2 47 5.4 NW 13 15 7 8 1017.2 1017.2 0.0
30/06:30pm 17.6 13.7 5.2 44 6.0 NW 15 20 8 11 1016.8 - 0.0
30/06:00pm 18.5 13.8 5.0 41 6.5 WNW 19 28 10 15 1016.4 1016.4 0.0
30/05:30pm 19.3 15.3 5.0 39 6.9 WNW 15 22 8 12 1015.9 - 0.0
30/05:00pm 20.4 15.6 4.4 35 7.7 WNW 19 30 10 16 1015.3 1015.3 0.0
30/04:30pm 21.3 16.3 4.4 33 8.2 WNW 20 26 11 14 1015.0 - 0.0
30/04:00pm 22.3 17.3 4.4 31 8.8 WNW 20 28 11 15 1014.8 1014.8 0.0
30/03:30pm 22.9 17.8 3.9 29 9.3 W 20 28 11 15 1014.4 - 0.0
30/03:00pm 23.0 17.1 4.0 29 9.3 W 24 32 13 17 1014.4 1014.4 0.0
30/02:30pm 22.9 17.7 3.4 28 9.4 WNW 20 32 11 17 1014.5 - 0.0
30/02:00pm 23.4 16.8 4.4 29 9.4 WNW 28 41 15 22 1014.6 1014.6 0.0
30/01:30pm 23.2 17.0 4.2 29 9.3 WNW 26 39 14 21 1014.5 - 0.0
30/01:00pm 23.5 18.1 4.5 29 9.4 NW 22 26 12 14 1014.8 1014.8 0.0
30/12:30pm 23.1 19.9 5.1 31 9.0 W 11 15 6 8 1015.3 - 0.0
30/12:00pm 22.4 18.4 4.9 32 8.6 WSW 15 20 8 11 1015.9 1015.9 0.0
30/11:30am 21.7 16.8 5.2 34 8.2 WSW 20 26 11 14 1016.4 - 0.0
30/11:00am 21.2 16.1 4.3 33 8.2 W 20 24 11 13 1017.0 1017.0 0.0
30/10:30am 20.7 16.2 4.3 34 7.9 WNW 17 24 9 13 1017.3 - 0.0
30/10:00am 20.3 15.3 4.4 35 7.7 WNW 20 32 11 17 1017.2 1017.2 0.0
30/09:30am 19.6 13.4 4.5 37 7.3 NW 26 32 14 17 1017.4 - 0.0
30/09:00am 18.3 12.4 4.1 39 6.7 WNW 24 33 13 18 1017.9 1017.9 0.0
30/08:30am 17.2 13.1 4.2 42 6.1 WNW 15 19 8 10 1018.3 - 0.0
30/08:00am 15.7 9.7 3.5 44 5.6 NW 24 32 13 17 1017.6 1017.6 0.0
30/07:30am 14.3 9.2 3.2 47 5.0 N 19 28 10 15 1017.9 - 0.0
30/07:00am 13.8 9.1 3.0 48 4.8 N 17 20 9 11 1017.6 1017.6 0.0
30/06:30am 12.3 7.0 3.0 53 4.1 NW 20 26 11 14 1017.1 - 0.0
30/06:00am 11.6 5.6 3.4 57 3.6 NW 24 30 13 16 1016.6 1016.6 0.0
30/05:30am 9.9 6.4 3.6 65 2.7 NNW 11 13 6 7 1017.0 - 0.0
30/05:00am 10.3 6.4 3.6 63 2.9 NW 13 17 7 9 1016.7 1016.7 0.0
30/04:30am 9.6 5.6 3.1 64 2.8 NW 13 19 7 10 1016.3 - 0.0
30/04:00am 10.9 6.8 4.6 65 2.8 NW 15 19 8 10 1016.2 1016.2 0.0
30/03:30am 8.2 5.3 2.7 68 2.3 W 7 11 4 6 1016.3 - 0.0
30/03:00am 9.0 6.1 2.8 65 2.6 W 7 11 4 6 1016.3 1016.3 0.0
30/02:30am 10.9 8.0 1.4 52 4.0 SW 6 9 3 5 1015.8 - 0.0
30/02:00am 14.3 9.9 2.9 46 5.1 N 15 22 8 12 1015.6 1015.6 0.0

Latest Capital City Observations: Canberra | Sydney | Melbourne | Brisbane | Adelaide | Perth | Hobart | Darwin

Other Formats:

Comma delimited format used in spreadsheet applications
http://www.bom.gov.au/fwo/IDN60901/IDN60901.94765.axf

JavaScript Object Notation format (JSON) in row-major order
http://www.bom.gov.au/fwo/IDN60901/IDN60901.94765.json